createdAt,value
2019-04-23T00:00:13.050Z,1000.21
2019-04-23T00:00:45.032Z,1000.14
2019-04-23T00:01:48.814Z,1000.15
2019-04-23T00:02:18.358Z,1000.16
2019-04-23T00:02:53.223Z,1000.12
2019-04-23T00:03:12.626Z,1000.14
2019-04-23T00:03:45.392Z,1000.15
2019-04-23T00:04:16.456Z,1000.13
2019-04-23T00:04:46.535Z,1000.07
2019-04-23T00:05:28.828Z,1000.09
2019-04-23T00:05:46.605Z,1000.07
2019-04-23T00:06:23.177Z,1000.05
2019-04-23T00:06:57.201Z,1000.07
2019-04-23T00:08:25.556Z,999.99
2019-04-23T00:08:57.620Z,999.99
2019-04-23T00:09:25.871Z,1000.03
2019-04-23T00:09:56.707Z,1000.05
2019-04-23T00:10:58.247Z,1000.02
2019-04-23T00:11:59.659Z,1000.01
2019-04-23T00:12:37.248Z,1000.01
2019-04-23T00:12:58.223Z,999.99
2019-04-23T00:13:36.954Z,999.97
2019-04-23T00:14:05.400Z,999.95
2019-04-23T00:14:37.808Z,999.98
2019-04-23T00:15:07.320Z,999.99
2019-04-23T00:15:40.037Z,999.95
2019-04-23T00:16:12.515Z,999.95
2019-04-23T00:16:49.055Z,999.92
2019-04-23T00:17:04.263Z,999.9
2019-04-23T00:17:36.802Z,999.92
2019-04-23T00:18:02.631Z,999.92
2019-04-23T00:18:49.164Z,999.89
2019-04-23T00:19:02.216Z,999.89
2019-04-23T00:19:39.513Z,999.9
2019-04-23T00:20:07.691Z,999.92
2019-04-23T00:20:33.707Z,999.89
2019-04-23T00:21:05.621Z,999.95
2019-04-23T00:22:04.989Z,999.93
2019-04-23T00:22:36.369Z,999.95
2019-04-23T00:23:44.280Z,999.94
2019-04-23T00:24:17.215Z,999.91
2019-04-23T00:24:56.593Z,999.9
2019-04-23T00:25:23.884Z,999.91
2019-04-23T00:25:48.913Z,999.89
2019-04-23T00:26:07.657Z,999.85
2019-04-23T00:26:36.285Z,999.83
2019-04-23T00:27:15.289Z,999.79
2019-04-23T00:28:06.365Z,999.86
2019-04-23T00:28:13.973Z,999.83
2019-04-23T00:28:40.686Z,999.86
2019-04-23T00:29:18.308Z,999.87
2019-04-23T00:29:45.789Z,999.8
2019-04-23T00:30:09.303Z,999.82
2019-04-23T00:30:47.971Z,999.81
2019-04-23T00:31:18.093Z,999.83
2019-04-23T00:31:49.363Z,999.76
2019-04-23T00:32:21.583Z,999.79
2019-04-23T00:32:45.955Z,999.77
2019-04-23T00:33:49.409Z,999.77
2019-04-23T00:34:15.307Z,999.74
2019-04-23T00:34:54.458Z,999.7
2019-04-23T00:35:17.874Z,999.78
2019-04-23T00:35:49.624Z,999.73
2019-04-23T00:36:25.272Z,999.73
2019-04-23T00:36:50.956Z,999.75
2019-04-23T00:37:35.141Z,999.74
2019-04-23T00:37:54.683Z,999.7
2019-04-23T00:38:53.863Z,999.72
2019-04-23T00:39:22.847Z,999.75
2019-04-23T00:39:56.132Z,999.71
2019-04-23T00:40:31.541Z,999.73
2019-04-23T00:40:57.175Z,999.67
2019-04-23T00:42:06.462Z,999.65
2019-04-23T00:42:36.418Z,999.67
2019-04-23T00:43:01.785Z,999.64
2019-04-23T00:43:32.401Z,999.69
2019-04-23T00:44:39.906Z,999.71
2019-04-23T00:45:00.082Z,999.66
2019-04-23T00:45:39.672Z,999.63
2019-04-23T00:46:06.055Z,999.64
2019-04-23T00:46:34.807Z,999.58
2019-04-23T00:47:08.673Z,999.62
2019-04-23T00:47:44.525Z,999.65
2019-04-23T00:48:13.435Z,999.55
2019-04-23T00:48:42.531Z,999.58
2019-04-23T00:49:10.523Z,999.6
2019-04-23T00:49:39.554Z,999.58
2019-04-23T00:50:28.114Z,999.61
2019-04-23T00:51:08.991Z,999.57
2019-04-23T00:51:42.283Z,999.55
2019-04-23T00:52:20.325Z,999.56
2019-04-23T00:52:45.541Z,999.52
2019-04-23T00:53:17.001Z,999.53
2019-04-23T00:53:43.495Z,999.5
2019-04-23T00:54:17.325Z,999.48
2019-04-23T00:55:34.961Z,999.53
2019-04-23T00:56:52.430Z,999.52
2019-04-23T00:57:23.875Z,999.5
2019-04-23T00:57:57.645Z,999.52
2019-04-23T00:58:27.698Z,999.5
2019-04-23T00:58:54.458Z,999.5
2019-04-23T00:59:26.590Z,999.48
2019-04-23T01:00:01.724Z,999.46
2019-04-23T01:00:33.445Z,999.47
2019-04-23T01:00:57.573Z,999.42
2019-04-23T01:01:35.657Z,999.48
2019-04-23T01:02:00.564Z,999.54
2019-04-23T01:03:25.018Z,999.51
2019-04-23T01:04:11.649Z,999.44
2019-04-23T01:04:31.444Z,999.44
2019-04-23T01:05:10.114Z,999.49
2019-04-23T01:05:35.015Z,999.48
2019-04-23T01:06:06.106Z,999.44
2019-04-23T01:06:36.854Z,999.47
2019-04-23T01:07:10.891Z,999.46
2019-04-23T01:07:37.958Z,999.52
2019-04-23T01:08:11.631Z,999.47
2019-04-23T01:08:43.970Z,999.48
2019-04-23T01:09:07.742Z,999.49
2019-04-23T01:09:45.408Z,999.47
2019-04-23T01:10:13.792Z,999.51
2019-04-23T01:10:42.879Z,999.5
2019-04-23T01:11:15.962Z,999.5
2019-04-23T01:11:43.158Z,999.5
2019-04-23T01:12:22.427Z,999.46
2019-04-23T01:13:22.166Z,999.43
2019-04-23T01:14:19.935Z,999.46
2019-04-23T01:14:47.981Z,999.39
2019-04-23T01:15:25.290Z,999.4
2019-04-23T01:15:52.181Z,999.39
2019-04-23T01:16:20.767Z,999.41
2019-04-23T01:16:47.680Z,999.41
2019-04-23T01:17:31.668Z,999.39
2019-04-23T01:18:37.659Z,999.36
2019-04-23T01:18:53.847Z,999.37
2019-04-23T01:19:43.057Z,999.38
2019-04-23T01:20:00.918Z,999.38
2019-04-23T01:20:28.230Z,999.35
2019-04-23T01:20:53.388Z,999.34
2019-04-23T01:21:13.695Z,999.28
2019-04-23T01:21:43.253Z,999.3
2019-04-23T01:22:12.521Z,999.3
2019-04-23T01:22:44.183Z,999.29
2019-04-23T01:23:11.565Z,999.31
2019-04-23T01:23:46.825Z,999.27
2019-04-23T01:24:17.674Z,999.25
2019-04-23T01:24:44.573Z,999.32
2019-04-23T01:25:20.861Z,999.25
2019-04-23T01:25:54.181Z,999.26
2019-04-23T01:26:29.224Z,999.27
2019-04-23T01:27:21.969Z,999.25
2019-04-23T01:27:44.393Z,999.25
2019-04-23T01:28:07.454Z,999.25
2019-04-23T01:28:41.682Z,999.26
2019-04-23T01:29:12.440Z,999.23
2019-04-23T01:29:42.298Z,999.22
2019-04-23T01:30:40.327Z,999.21
2019-04-23T01:31:14.517Z,999.21
2019-04-23T01:31:47.374Z,999.27
2019-04-23T01:32:15.539Z,999.22
2019-04-23T01:32:40.872Z,999.25
2019-04-23T01:33:17.967Z,999.19
2019-04-23T01:33:50.009Z,999.23
2019-04-23T01:34:19.388Z,999.19
2019-04-23T01:34:49.398Z,999.17
2019-04-23T01:36:02.729Z,999.2
2019-04-23T01:36:32.354Z,999.13
2019-04-23T01:36:51.234Z,999.18
2019-04-23T01:37:25.266Z,999.25
2019-04-23T01:37:50.363Z,999.18
2019-04-23T01:38:27.746Z,999.18
2019-04-23T01:39:00.063Z,999.18
2019-04-23T01:39:22.591Z,999.18
2019-04-23T01:39:57.156Z,999.17
2019-04-23T01:40:31.741Z,999.14
2019-04-23T01:40:51.667Z,999.21
2019-04-23T01:42:03.524Z,999.14
2019-04-23T01:42:40.325Z,999.13
2019-04-23T01:42:58.459Z,999.15
2019-04-23T01:43:36.366Z,999.12
2019-04-23T01:43:54.727Z,999.19
2019-04-23T01:44:36.533Z,999.15
2019-04-23T01:45:06.567Z,999.14
2019-04-23T01:45:29.469Z,999.18
2019-04-23T01:46:07.435Z,999.13
2019-04-23T01:46:41.479Z,999.11
2019-04-23T01:47:07.551Z,999.13
2019-04-23T01:47:44.984Z,999.14
2019-04-23T01:48:04.480Z,999.18
2019-04-23T01:48:40.246Z,999.13
2019-04-23T01:49:11.929Z,999.14
2019-04-23T01:49:44.356Z,999.16
2019-04-23T01:50:18.527Z,999.15
2019-04-23T01:50:48.159Z,999.1
2019-04-23T01:51:06.058Z,999.13
2019-04-23T01:51:45.966Z,999.06
2019-04-23T01:52:14.310Z,999.14
2019-04-23T01:53:17.886Z,999.09
2019-04-23T01:53:45.089Z,999.09
2019-04-23T01:54:17.354Z,999.1
2019-04-23T01:54:45.078Z,999.08
2019-04-23T01:55:21.051Z,999.05
2019-04-23T01:55:50.889Z,999.06
2019-04-23T01:56:46.991Z,999.1
2019-04-23T01:57:22.658Z,999.04
2019-04-23T01:58:05.631Z,999.05
2019-04-23T01:58:37.960Z,999.02
2019-04-23T01:58:59.008Z,999.06
2019-04-23T01:59:24.311Z,999.05
2019-04-23T02:00:01.421Z,999.05
2019-04-23T02:00:28.537Z,999.04
2019-04-23T02:00:57.500Z,999.03
2019-04-23T02:01:44.229Z,999.1
2019-04-23T02:01:57.796Z,999.05
2019-04-23T02:02:34.235Z,999.02
2019-04-23T02:03:00.648Z,999.03
2019-04-23T02:03:46.415Z,999.03
2019-04-23T02:04:03.062Z,999
2019-04-23T02:04:34.384Z,999.05
2019-04-23T02:05:08.802Z,999.01
2019-04-23T02:05:34.737Z,998.99
2019-04-23T02:06:06.549Z,998.99
2019-04-23T02:06:38.456Z,998.97
2019-04-23T02:07:05.396Z,998.91
2019-04-23T02:07:43.683Z,998.96
2019-04-23T02:08:07.392Z,998.96
2019-04-23T02:08:39.458Z,998.97
2019-04-23T02:09:23.254Z,998.96
2019-04-23T02:09:41.621Z,998.97
2019-04-23T02:11:25.130Z,998.98
2019-04-23T02:11:43.400Z,999.02
2019-04-23T02:12:17.871Z,998.97
2019-04-23T02:12:47.502Z,998.88
2019-04-23T02:13:16.013Z,998.99
2019-04-23T02:14:12.720Z,998.96
2019-04-23T02:14:49.564Z,998.89
2019-04-23T02:15:16.654Z,998.92
2019-04-23T02:15:47.254Z,998.85
2019-04-23T02:16:18.751Z,998.9
2019-04-23T02:16:49.461Z,998.88
2019-04-23T02:17:21.781Z,998.9
2019-04-23T02:17:51.894Z,998.89
2019-04-23T02:18:15.615Z,998.89
2019-04-23T02:18:47.278Z,998.86
2019-04-23T02:19:23.144Z,998.88
2019-04-23T02:19:51.085Z,998.83
2019-04-23T02:20:27.416Z,998.81
2019-04-23T02:20:52.442Z,998.8
2019-04-23T02:21:22.124Z,998.91
2019-04-23T02:22:29.791Z,998.8
2019-04-23T02:23:03.922Z,998.85
2019-04-23T02:23:53.458Z,998.85
2019-04-23T02:24:24.202Z,998.78
2019-04-23T02:25:01.318Z,998.81
2019-04-23T02:25:39.242Z,998.83
2019-04-23T02:26:02.343Z,998.77
2019-04-23T02:26:55.343Z,998.76
2019-04-23T02:27:34.549Z,998.72
2019-04-23T02:28:04.246Z,998.78
2019-04-23T02:28:38.361Z,998.77
2019-04-23T02:29:07.437Z,998.7
2019-04-23T02:29:43.309Z,998.65
2019-04-23T02:31:11.147Z,998.71
2019-04-23T02:32:08.225Z,998.69
2019-04-23T02:33:28.515Z,998.66
2019-04-23T02:33:49.287Z,998.65
2019-04-23T02:34:30.763Z,998.68
2019-04-23T02:34:51.091Z,998.62
2019-04-23T02:35:32.277Z,998.66
2019-04-23T02:36:38.874Z,998.67
2019-04-23T02:36:54.313Z,998.66
2019-04-23T02:37:32.289Z,998.65
2019-04-23T02:38:45.088Z,998.62
2019-04-23T02:39:28.254Z,998.67
2019-04-23T02:40:03.676Z,998.66
2019-04-23T02:40:37.076Z,998.67
2019-04-23T02:43:19.894Z,998.65
2019-04-23T02:44:10.868Z,998.65
2019-04-23T02:44:31.617Z,998.65
2019-04-23T02:45:01.811Z,998.66
2019-04-23T02:45:38.977Z,998.64
2019-04-23T02:46:30.937Z,998.61
2019-04-23T02:47:16.721Z,998.6
2019-04-23T02:48:18.785Z,998.62
2019-04-23T02:49:16.927Z,998.56
2019-04-23T02:50:34.323Z,998.57
2019-04-23T02:51:03.317Z,998.53
2019-04-23T02:51:10.073Z,998.52
2019-04-23T02:51:58.328Z,998.51
2019-04-23T02:52:15.471Z,998.52
2019-04-23T02:52:46.852Z,998.52
2019-04-23T02:55:24.664Z,998.54
2019-04-23T02:57:05.409Z,998.53
2019-04-23T02:57:27.885Z,998.52
2019-04-23T02:58:41.637Z,998.56
2019-04-23T02:59:01.598Z,998.51
2019-04-23T02:59:53.409Z,998.5
2019-04-23T03:01:39.043Z,998.47
2019-04-23T03:02:14.082Z,998.48
2019-04-23T03:03:05.688Z,998.48
2019-04-23T03:03:40.349Z,998.44
2019-04-23T03:04:07.906Z,998.41
2019-04-23T03:04:39.758Z,998.44
2019-04-23T03:06:04.647Z,998.47
2019-04-23T03:07:13.795Z,998.4
2019-04-23T03:08:05.959Z,998.41
2019-04-23T03:09:27.589Z,998.42
2019-04-23T03:09:44.257Z,998.41
2019-04-23T03:10:15.199Z,998.43
2019-04-23T03:10:59.340Z,998.42
2019-04-23T03:11:30.413Z,998.41
2019-04-23T03:11:47.700Z,998.39
2019-04-23T03:12:24.104Z,998.45
2019-04-23T03:13:08.882Z,998.41
2019-04-23T03:13:53.301Z,998.41
2019-04-23T03:14:58.093Z,998.38
2019-04-23T03:15:39.038Z,998.38
2019-04-23T03:16:05.899Z,998.36
2019-04-23T03:16:37.527Z,998.34
2019-04-23T03:16:56.148Z,998.38
2019-04-23T03:17:24.014Z,998.37
2019-04-23T03:18:11.303Z,998.34
2019-04-23T03:18:38.794Z,998.39
2019-04-23T03:18:59.843Z,998.34
2019-04-23T03:19:31.490Z,998.39
2019-04-23T03:20:07.277Z,998.33
2019-04-23T03:20:47.722Z,998.38
2019-04-23T03:21:15.165Z,998.36
2019-04-23T03:21:42.389Z,998.36
2019-04-23T03:22:44.145Z,998.34
2019-04-23T03:23:09.764Z,998.31
2019-04-23T03:24:43.138Z,998.33
2019-04-23T03:25:24.923Z,998.36
2019-04-23T03:25:35.450Z,998.35
2019-04-23T03:27:21.066Z,998.35
2019-04-23T03:28:20.891Z,998.31
2019-04-23T03:29:03.440Z,998.29
2019-04-23T03:29:19.284Z,998.27
2019-04-23T03:31:40.471Z,998.19
2019-04-23T03:33:52.167Z,998.33
2019-04-23T03:35:46.317Z,998.29
2019-04-23T03:36:56.240Z,998.31
2019-04-23T03:37:31.978Z,998.26
2019-04-23T03:38:05.623Z,998.28
2019-04-23T03:38:37.392Z,998.27
2019-04-23T03:39:01.390Z,998.23
2019-04-23T03:39:39.826Z,998.25
2019-04-23T03:40:01.593Z,998.26
2019-04-23T03:40:25.596Z,998.3
2019-04-23T03:42:09.321Z,998.26
2019-04-23T03:42:42.179Z,998.27
2019-04-23T03:43:06.198Z,998.25
2019-04-23T03:43:36.813Z,998.26
2019-04-23T03:44:01.206Z,998.24
2019-04-23T03:44:55.931Z,998.3
2019-04-23T03:45:15.718Z,998.29
2019-04-23T03:45:46.175Z,998.27
2019-04-23T03:46:23.044Z,998.3
2019-04-23T03:47:18.000Z,998.28
2019-04-23T03:47:47.928Z,998.27
2019-04-23T03:48:25.196Z,998.31
2019-04-23T03:49:12.762Z,998.31
2019-04-23T03:50:04.211Z,998.33
2019-04-23T03:50:21.218Z,998.31
2019-04-23T03:52:00.761Z,998.32
2019-04-23T03:52:44.148Z,998.28
2019-04-23T03:56:10.584Z,998.29
2019-04-23T03:57:51.981Z,998.29
2019-04-23T03:58:27.559Z,998.33
2019-04-23T03:59:36.360Z,998.27
2019-04-23T04:00:02.165Z,998.27
2019-04-23T04:01:28.913Z,998.3
2019-04-23T04:02:08.754Z,998.36
2019-04-23T04:04:03.581Z,998.24
2019-04-23T04:04:36.324Z,998.27
2019-04-23T04:05:10.011Z,998.2
2019-04-23T04:06:13.222Z,998.27
2019-04-23T04:06:47.838Z,998.23
2019-04-23T04:07:46.753Z,998.24
2019-04-23T04:08:17.772Z,998.26
2019-04-23T04:08:46.415Z,998.29
2019-04-23T04:09:59.149Z,998.34
2019-04-23T04:10:51.723Z,998.32
2019-04-23T04:11:14.047Z,998.31
2019-04-23T04:11:33.245Z,998.27
2019-04-23T04:12:45.368Z,998.26
2019-04-23T04:13:29.929Z,998.26
2019-04-23T04:14:00.638Z,998.31
2019-04-23T04:14:31.236Z,998.25
2019-04-23T04:14:53.076Z,998.26
2019-04-23T04:15:39.103Z,998.31
2019-04-23T04:16:26.337Z,998.23
2019-04-23T04:16:58.836Z,998.26
2019-04-23T04:17:34.917Z,998.25
2019-04-23T04:18:09.107Z,998.27
2019-04-23T04:18:43.907Z,998.29
2019-04-23T04:19:05.900Z,998.22
2019-04-23T04:20:04.764Z,998.24
2019-04-23T04:21:07.042Z,998.26
2019-04-23T04:21:58.190Z,998.23
2019-04-23T04:22:08.416Z,998.29
2019-04-23T04:22:58.991Z,998.27
2019-04-23T04:23:16.480Z,998.34
2019-04-23T04:23:42.482Z,998.32
2019-04-23T04:24:21.237Z,998.25
2019-04-23T04:25:06.462Z,998.25
2019-04-23T04:25:14.143Z,998.3
2019-04-23T04:26:13.042Z,998.25
2019-04-23T04:26:50.717Z,998.29
2019-04-23T04:27:35.549Z,998.28
2019-04-23T04:27:53.601Z,998.25
2019-04-23T04:28:17.020Z,998.31
2019-04-23T04:28:50.813Z,998.32
2019-04-23T04:29:20.233Z,998.33
2019-04-23T04:29:51.608Z,998.3
2019-04-23T04:30:47.963Z,998.34
2019-04-23T04:31:30.550Z,998.28
2019-04-23T04:31:50.282Z,998.29
2019-04-23T04:32:14.621Z,998.27
2019-04-23T04:33:14.681Z,998.28
2019-04-23T04:34:10.392Z,998.28
2019-04-23T04:35:21.869Z,998.29
2019-04-23T04:36:05.394Z,998.26
2019-04-23T04:36:26.194Z,998.28
2019-04-23T04:37:26.408Z,998.24
2019-04-23T04:38:44.690Z,998.27
2019-04-23T04:39:26.267Z,998.27
2019-04-23T04:39:41.988Z,998.28
2019-04-23T04:40:10.362Z,998.26
2019-04-23T04:40:36.265Z,998.26
2019-04-23T04:41:24.985Z,998.25
2019-04-23T04:41:39.665Z,998.28
2019-04-23T04:42:14.148Z,998.24
2019-04-23T04:42:41.355Z,998.27
2019-04-23T04:44:45.941Z,998.23
2019-04-23T04:45:20.016Z,998.23
2019-04-23T04:45:49.480Z,998.28
2019-04-23T04:46:49.648Z,998.24
2019-04-23T04:47:19.456Z,998.25
2019-04-23T04:48:15.481Z,998.22
2019-04-23T04:49:01.154Z,998.22
2019-04-23T04:49:19.540Z,998.2
2019-04-23T04:49:55.532Z,998.24
2019-04-23T04:50:14.521Z,998.19
2019-04-23T04:50:59.830Z,998.22
2019-04-23T04:51:48.665Z,998.25
2019-04-23T04:53:21.825Z,998.28
2019-04-23T04:53:44.592Z,998.29
2019-04-23T04:54:28.573Z,998.25
2019-04-23T04:55:02.723Z,998.22
2019-04-23T04:55:35.508Z,998.21
2019-04-23T04:56:18.626Z,998.22
2019-04-23T04:57:09.625Z,998.21
2019-04-23T04:57:39.600Z,998.18
2019-04-23T04:58:02.700Z,998.16
2019-04-23T04:58:46.383Z,998.23
2019-04-23T04:59:08.387Z,998.21
2019-04-23T04:59:45.339Z,998.2
2019-04-23T05:00:52.344Z,998.18
2019-04-23T05:01:48.009Z,998.22
2019-04-23T05:02:24.867Z,998.21
2019-04-23T05:03:00.850Z,998.2
2019-04-23T05:03:59.758Z,998.21
2019-04-23T05:04:26.162Z,998.24
2019-04-23T05:04:55.628Z,998.19
2019-04-23T05:06:20.906Z,998.22
2019-04-23T05:07:27.319Z,998.22
2019-04-23T05:08:27.930Z,998.21
2019-04-23T05:09:28.948Z,998.23
2019-04-23T05:10:32.221Z,998.19
2019-04-23T05:10:59.346Z,998.2
2019-04-23T05:12:27.229Z,998.22
2019-04-23T05:13:21.115Z,998.22
2019-04-23T05:13:38.852Z,998.2
2019-04-23T05:14:43.357Z,998.25
2019-04-23T05:15:00.639Z,998.24
2019-04-23T05:15:27.727Z,998.27
2019-04-23T05:17:02.639Z,998.15
2019-04-23T05:17:41.420Z,998.2
2019-04-23T05:18:07.237Z,998.18
2019-04-23T05:18:43.875Z,998.25
2019-04-23T05:19:34.863Z,998.25
2019-04-23T05:20:04.353Z,998.23
2019-04-23T05:20:36.442Z,998.23
2019-04-23T05:21:38.569Z,998.2
2019-04-23T05:22:38.274Z,998.19
2019-04-23T05:23:14.028Z,998.19
2019-04-23T05:23:33.245Z,998.19
2019-04-23T05:24:08.103Z,998.22
2019-04-23T05:24:34.828Z,998.22
2019-04-23T05:24:56.930Z,998.17
2019-04-23T05:25:31.192Z,998.23
2019-04-23T05:26:08.327Z,998.22
2019-04-23T05:26:26.895Z,998.19
2019-04-23T05:27:02.314Z,998.19
2019-04-23T05:27:46.000Z,998.2
2019-04-23T05:28:38.237Z,998.17
2019-04-23T05:29:10.876Z,998.19
2019-04-23T05:29:35.814Z,998.15
2019-04-23T05:30:14.718Z,998.19
2019-04-23T05:30:44.236Z,998.24
2019-04-23T05:31:13.898Z,998.19
2019-04-23T05:31:37.389Z,998.2
2019-04-23T05:32:11.805Z,998.16
2019-04-23T05:32:48.524Z,998.18
2019-04-23T05:33:16.931Z,998.16
2019-04-23T05:33:52.028Z,998.17
2019-04-23T05:34:14.287Z,998.12
2019-04-23T05:34:46.479Z,998.13
2019-04-23T05:35:31.834Z,998.15
2019-04-23T05:36:53.256Z,998.12
2019-04-23T05:36:53.257Z,998.08
2019-04-23T05:37:30.853Z,998.08
2019-04-23T05:38:06.958Z,998.09
2019-04-23T05:38:35.580Z,998.12
2019-04-23T05:38:58.180Z,998.11
2019-04-23T05:39:33.634Z,998.1
2019-04-23T05:40:02.357Z,998.15
2019-04-23T05:40:36.851Z,998.09
2019-04-23T05:41:58.251Z,998.06
2019-04-23T05:42:31.593Z,998.07
2019-04-23T05:43:02.889Z,998.08
2019-04-23T05:44:10.179Z,998.04
2019-04-23T05:44:38.138Z,998.07
2019-04-23T05:45:07.819Z,998.05
2019-04-23T05:46:14.053Z,998.08
2019-04-23T05:46:36.454Z,998.06
2019-04-23T05:47:15.835Z,998.03
2019-04-23T05:47:41.181Z,998.05
2019-04-23T05:48:45.408Z,998.03
2019-04-23T05:49:31.081Z,998.09
2019-04-23T05:49:45.307Z,998.01
2019-04-23T05:50:25.677Z,997.99
2019-04-23T05:50:57.607Z,998.03
2019-04-23T05:51:17.687Z,998
2019-04-23T05:51:54.875Z,998.02
2019-04-23T05:52:15.879Z,998.04
2019-04-23T05:52:52.580Z,998.04
2019-04-23T05:53:18.198Z,998
2019-04-23T05:54:26.370Z,997.99
2019-04-23T05:54:56.113Z,997.97
2019-04-23T05:55:18.307Z,997.97
2019-04-23T05:55:55.076Z,998.02
2019-04-23T05:56:20.407Z,998.01
2019-04-23T05:56:51.520Z,997.98
2019-04-23T05:57:19.677Z,998.01
2019-04-23T05:57:51.819Z,997.93
2019-04-23T05:58:28.465Z,997.98
2019-04-23T05:58:57.594Z,997.99
2019-04-23T05:59:41.402Z,997.95
2019-04-23T06:00:01.950Z,997.96
2019-04-23T06:00:32.008Z,997.93
2019-04-23T06:01:05.041Z,997.95
2019-04-23T06:01:49.115Z,997.95
2019-04-23T06:02:40.592Z,997.92
2019-04-23T06:03:37.887Z,997.93
2019-04-23T06:04:10.332Z,997.92
2019-04-23T06:04:35.622Z,997.92
2019-04-23T06:05:08.628Z,997.97
2019-04-23T06:05:38.551Z,997.94
2019-04-23T06:06:10.092Z,997.99
2019-04-23T06:07:21.699Z,997.92
2019-04-23T06:07:42.132Z,997.9
2019-04-23T06:08:11.287Z,997.92
2019-04-23T06:08:45.831Z,997.94
2019-04-23T06:09:13.722Z,997.94
2019-04-23T06:09:45.938Z,997.93
2019-04-23T06:10:17.909Z,997.94
2019-04-23T06:10:47.272Z,997.96
2019-04-23T06:11:18.296Z,997.95
2019-04-23T06:12:18.580Z,997.9
2019-04-23T06:12:50.319Z,997.99
2019-04-23T06:13:25.840Z,997.97
2019-04-23T06:14:00.106Z,997.91
2019-04-23T06:14:52.180Z,997.97
2019-04-23T06:15:26.562Z,997.91
2019-04-23T06:15:50.194Z,997.9
2019-04-23T06:16:30.791Z,997.95
2019-04-23T06:17:03.062Z,997.93
2019-04-23T06:17:24.831Z,997.89
2019-04-23T06:18:01.381Z,997.89
2019-04-23T06:18:30.253Z,997.94
2019-04-23T06:19:01.041Z,997.89
2019-04-23T06:19:20.669Z,997.93
2019-04-23T06:20:02.713Z,997.88
2019-04-23T06:20:34.763Z,997.94
2019-04-23T06:21:02.079Z,997.88
2019-04-23T06:21:33.717Z,997.89
2019-04-23T06:22:05.767Z,997.94
2019-04-23T06:22:34.403Z,997.94
2019-04-23T06:23:05.282Z,997.96
2019-04-23T06:23:36.344Z,997.91
2019-04-23T06:24:09.323Z,997.97
2019-04-23T06:24:32.495Z,997.97
2019-04-23T06:25:10.854Z,997.94
2019-04-23T06:25:49.234Z,997.88
2019-04-23T06:26:17.689Z,997.93
2019-04-23T06:26:45.332Z,997.91
2019-04-23T06:27:37.694Z,997.95
2019-04-23T06:28:12.542Z,997.91
2019-04-23T06:28:38.590Z,997.86
2019-04-23T06:29:38.456Z,997.88
2019-04-23T06:30:06.612Z,997.86
2019-04-23T06:30:46.602Z,997.93
2019-04-23T06:31:42.776Z,997.9
2019-04-23T06:32:12.796Z,997.87
2019-04-23T06:32:42.575Z,997.83
2019-04-23T06:33:20.814Z,997.86
2019-04-23T06:33:46.125Z,997.8
2019-04-23T06:34:46.884Z,997.84
2019-04-23T06:35:13.441Z,997.76
2019-04-23T06:35:50.120Z,997.77
2019-04-23T06:36:50.624Z,997.79
2019-04-23T06:37:36.637Z,997.78
2019-04-23T06:38:12.244Z,997.78
2019-04-23T06:38:40.084Z,997.79
2019-04-23T06:39:28.061Z,997.76
2019-04-23T06:39:54.670Z,997.75
2019-04-23T06:40:26.433Z,997.76
2019-04-23T06:40:53.747Z,997.74
2019-04-23T06:41:28.876Z,997.71
2019-04-23T06:42:42.649Z,997.68
2019-04-23T06:42:57.720Z,997.78
2019-04-23T06:43:31.873Z,997.74
2019-04-23T06:44:05.631Z,997.75
2019-04-23T06:44:30.618Z,997.72
2019-04-23T06:44:59.398Z,997.7
2019-04-23T06:45:31.953Z,997.69
2019-04-23T06:46:04.697Z,997.74
2019-04-23T06:46:36.978Z,997.72
2019-04-23T06:47:02.742Z,997.74
2019-04-23T06:47:28.654Z,997.72
2019-04-23T06:48:08.634Z,997.68
2019-04-23T06:48:33.668Z,997.68
2019-04-23T06:49:08.654Z,997.63
2019-04-23T06:49:36.849Z,997.63
2019-04-23T06:50:03.351Z,997.61
2019-04-23T06:50:41.210Z,997.67
2019-04-23T06:51:11.023Z,997.58
2019-04-23T06:51:43.603Z,997.64
2019-04-23T06:52:14.429Z,997.75
2019-04-23T06:52:31.216Z,997.64
2019-04-23T06:53:03.730Z,997.59
2019-04-23T06:53:35.722Z,997.62
2019-04-23T06:54:11.644Z,997.69
2019-04-23T06:54:47.513Z,997.66
2019-04-23T06:55:14.414Z,997.7
2019-04-23T06:55:41.899Z,997.71
2019-04-23T06:56:17.516Z,997.7
2019-04-23T06:56:50.826Z,997.69
2019-04-23T06:57:16.126Z,997.68
2019-04-23T06:57:45.835Z,997.68
2019-04-23T06:58:18.508Z,997.67
2019-04-23T06:58:41.446Z,997.66
2019-04-23T06:59:16.859Z,997.64
2019-04-23T06:59:58.988Z,997.64
2019-04-23T07:00:20.813Z,997.56
2019-04-23T07:00:47.734Z,997.61
2019-04-23T07:01:17.385Z,997.63
2019-04-23T07:01:52.671Z,997.65
2019-04-23T07:02:18.319Z,997.61
2019-04-23T07:02:53.245Z,997.63
2019-04-23T07:03:21.706Z,997.62
2019-04-23T07:03:56.780Z,997.57
2019-04-23T07:04:23.704Z,997.57
2019-04-23T07:05:08.098Z,997.59
2019-04-23T07:05:22.214Z,997.54
2019-04-23T07:06:02.845Z,997.53
2019-04-23T07:06:28.291Z,997.53
2019-04-23T07:07:42.302Z,997.56
2019-04-23T07:08:42.818Z,997.51
2019-04-23T07:09:17.069Z,997.48
2019-04-23T07:09:57.704Z,997.48
2019-04-23T07:10:31.454Z,997.54
2019-04-23T07:11:07.323Z,997.42
2019-04-23T07:11:33.621Z,997.43
2019-04-23T07:12:03.829Z,997.46
2019-04-23T07:12:36.073Z,997.41
2019-04-23T07:13:02.456Z,997.46
2019-04-23T07:13:46.338Z,997.45
2019-04-23T07:13:58.220Z,997.44
2019-04-23T07:14:43.372Z,997.45
2019-04-23T07:15:16.209Z,997.44
2019-04-23T07:15:44.590Z,997.38
2019-04-23T07:16:08.989Z,997.33
2019-04-23T07:16:38.259Z,997.44
2019-04-23T07:17:08.109Z,997.36
2019-04-23T07:17:34.142Z,997.39
2019-04-23T07:18:07.244Z,997.39
2019-04-23T07:18:40.441Z,997.35
2019-04-23T07:19:16.188Z,997.35
2019-04-23T07:19:40.710Z,997.42
2019-04-23T07:20:12.643Z,997.38
2019-04-23T07:20:39.787Z,997.32
2019-04-23T07:21:17.605Z,997.4
2019-04-23T07:21:41.360Z,997.42
2019-04-23T07:22:15.849Z,997.51
2019-04-23T07:22:49.581Z,997.39
2019-04-23T07:23:18.864Z,997.36
2019-04-23T07:24:05.081Z,997.53
2019-04-23T07:24:14.964Z,997.51
2019-04-23T07:24:52.548Z,997.59
2019-04-23T07:25:55.520Z,997.42
2019-04-23T07:26:44.837Z,997.38
2019-04-23T07:27:56.261Z,997.28
2019-04-23T07:28:25.871Z,997.28
2019-04-23T07:29:24.915Z,997.37
2019-04-23T07:30:01.300Z,997.34
2019-04-23T07:30:29.124Z,997.23
2019-04-23T07:30:59.800Z,997.34
2019-04-23T07:31:34.925Z,997.28
2019-04-23T07:31:58.833Z,997.34
2019-04-23T07:32:30.480Z,997.24
2019-04-23T07:33:03.879Z,997.27
2019-04-23T07:33:34.521Z,997.23
2019-04-23T07:34:12.185Z,997.28
2019-04-23T07:34:28.004Z,997.25
2019-04-23T07:35:06.937Z,997.22
2019-04-23T07:35:30.031Z,997.22
2019-04-23T07:36:08.348Z,997.23
2019-04-23T07:36:33.795Z,997.22
2019-04-23T07:37:04.632Z,997.22
2019-04-23T07:37:39.865Z,997.15
2019-04-23T07:38:12.642Z,997.2
2019-04-23T07:38:47.055Z,997.21
2019-04-23T07:40:09.198Z,997.1
2019-04-23T07:40:26.851Z,997.14
2019-04-23T07:40:53.543Z,997.17
2019-04-23T07:41:16.340Z,997.12
2019-04-23T07:41:47.698Z,997.23
2019-04-23T07:42:41.396Z,997.06
2019-04-23T07:43:14.327Z,997.15
2019-04-23T07:43:48.460Z,997.13
2019-04-23T07:44:20.190Z,997.09
2019-04-23T07:44:48.206Z,997.05
2019-04-23T07:45:51.542Z,997.04
2019-04-23T07:46:23.523Z,997.13
2019-04-23T07:47:02.902Z,997.03
2019-04-23T07:48:01.296Z,997.03
2019-04-23T07:48:55.529Z,997.02
2019-04-23T07:49:22.559Z,996.98
2019-04-23T07:50:09.330Z,996.99
2019-04-23T07:50:30.766Z,997
2019-04-23T07:50:57.509Z,996.97
2019-04-23T07:51:35.470Z,997.02
2019-04-23T07:52:09.393Z,997.02
2019-04-23T07:52:40.475Z,997.03
2019-04-23T07:53:16.854Z,996.92
2019-04-23T07:53:29.104Z,997.02
2019-04-23T07:54:22.325Z,996.96
2019-04-23T07:54:38.594Z,997.08